No particular awareness of the weather is required.    There are no Weather-warnings


Meteo18 Weather Cam more information Meteo18 Weather Cam


Thunder radar more information blitzortung!


Rain radar more information rain snow radar


Visit our other weather sites:

Template documentation
and downloads

And another site



Weather Underground History page Text

Daily Summary for July 7, 2016 Units:  Metric    English   Both
« Previous Day
Next Day »
Daily Weekly Monthly Yearly Custom
  High: Low: Average:
Temperature: 28.7 °C 10.3 °C 19.5 °C
Dew Point: 16.0 °C 9.4 °C 12.6 °C
Humidity: 96 % 39 % 69 %
Wind Speed: 4.8 km/h 0.0 km/h 0.2 km/h
Wind Gust: 8.0 km/h - -
Wind:- - SSW
Pressure: 1021.2 hPa 1017.2 hPa -
Precipitation: 0.0 mm    
Historical Graphs
 
 
Tabular Data for July 7, 2016
Time Temperature Dew Point Pressure Wind Wind Speed Wind Gust Humidity Rainfall Rate (Hourly)
00:02 13.8 °C 11.1 °C 1020.9 hPa Calm     84 % 0.0 mm
00:07 13.7 °C 11.2 °C 1020.9 hPa Calm     85 % 0.0 mm
00:12 13.6 °C 11.1 °C 1020.9 hPa Calm     85 % 0.0 mm
00:17 13.5 °C 11.2 °C 1020.9 hPa Calm     86 % 0.0 mm
00:22 13.4 °C 10.9 °C 1020.9 hPa Calm     85 % 0.0 mm
00:32 13.0 °C 10.7 °C 1020.9 hPa Calm     86 % 0.0 mm
00:37 12.8 °C 10.9 °C 1021.2 hPa Calm     88 % 0.0 mm
00:42 12.7 °C 10.8 °C 1021.2 hPa Calm     88 % 0.0 mm
00:47 12.6 °C 10.7 °C 1021.2 hPa Calm     88 % 0.0 mm
00:52 12.5 °C 10.7 °C 1021.2 hPa Calm     89 % 0.0 mm
01:02 12.4 °C 10.5 °C 1021.2 hPa Calm     88 % 0.0 mm
01:07 12.3 °C 10.4 °C 1021.2 hPa Calm     88 % 0.0 mm
01:12 12.2 °C 10.4 °C 1021.2 hPa Calm     89 % 0.0 mm
01:17 12.2 °C 10.4 °C 1020.9 hPa Calm     89 % 0.0 mm
01:22 12.2 °C 10.4 °C 1020.9 hPa Calm     89 % 0.0 mm
01:27 12.2 °C 10.4 °C 1020.9 hPa Calm     89 % 0.0 mm
01:32 12.2 °C 10.6 °C 1020.9 hPa Calm     90 % 0.0 mm
01:37 12.2 °C 10.6 °C 1020.9 hPa Calm     90 % 0.0 mm
01:42 12.2 °C 10.6 °C 1020.9 hPa Calm     90 % 0.0 mm
01:47 12.1 °C 10.5 °C 1020.9 hPa Calm     90 % 0.0 mm
01:52 11.9 °C 10.1 °C 1020.9 hPa Calm     89 % 0.0 mm
01:57 11.8 °C 10.2 °C 1020.9 hPa Calm     90 % 0.0 mm
02:02 11.8 °C 10.4 °C 1020.9 hPa Calm     91 % 0.0 mm
02:07 11.7 °C 10.3 °C 1020.5 hPa Calm     91 % 0.0 mm
02:12 11.6 °C 10.2 °C 1020.9 hPa Calm     91 % 0.0 mm
02:17 11.4 °C 10.0 °C 1020.5 hPa Calm     91 % 0.0 mm
02:22 11.4 °C 10.1 °C 1020.5 hPa Calm     92 % 0.0 mm
02:27 11.5 °C 10.2 °C 1020.5 hPa Calm     92 % 0.0 mm
02:32 11.3 °C 10.0 °C 1020.5 hPa Calm     92 % 0.0 mm
02:37 11.3 °C 10.0 °C 1020.5 hPa Calm     92 % 0.0 mm
02:42 11.2 °C 9.9 °C 1020.5 hPa Calm     92 % 0.0 mm
02:47 11.2 °C 9.9 °C 1020.5 hPa Calm     92 % 0.0 mm
02:52 11.2 °C 10.1 °C 1020.5 hPa Calm     93 % 0.0 mm
02:57 11.2 °C 10.1 °C 1020.5 hPa Calm     93 % 0.0 mm
03:02 11.3 °C 10.2 °C 1020.5 hPa Calm     93 % 0.0 mm
03:07 11.3 °C 10.2 °C 1020.5 hPa Calm     93 % 0.0 mm
03:12 11.3 °C 10.0 °C 1020.5 hPa Calm     92 % 0.0 mm
03:17 11.2 °C 9.9 °C 1020.2 hPa Calm     92 % 0.0 mm
03:22 11.1 °C 9.8 °C 1020.5 hPa Calm     92 % 0.0 mm
03:32 11.0 °C 9.9 °C 1020.2 hPa Calm     93 % 0.0 mm
03:37 11.0 °C 9.9 °C 1020.2 hPa Calm     93 % 0.0 mm
03:42 10.9 °C 9.8 °C 1020.2 hPa Calm     93 % 0.0 mm
03:47 11.0 °C 9.9 °C 1020.2 hPa Calm     93 % 0.0 mm
03:52 11.1 °C 10.0 °C 1020.2 hPa Calm     93 % 0.0 mm
03:57 11.1 °C 10.0 °C 1020.2 hPa Calm     93 % 0.0 mm
04:02 11.0 °C 9.9 °C 1020.2 hPa Calm     93 % 0.0 mm
04:12 10.8 °C 9.7 °C 1020.2 hPa Calm     93 % 0.0 mm
04:17 10.7 °C 9.6 °C 1020.2 hPa Calm     93 % 0.0 mm
04:22 10.7 °C 9.6 °C 1020.2 hPa Calm     93 % 0.0 mm
04:27 10.7 °C 9.8 °C 1020.2 hPa Calm     94 % 0.0 mm
04:32 10.7 °C 9.8 °C 1020.2 hPa Calm     94 % 0.0 mm
04:37 10.7 °C 9.8 °C 1020.2 hPa Calm     94 % 0.0 mm
04:42 10.8 °C 9.9 °C 1019.9 hPa Calm     94 % 0.0 mm
04:47 10.8 °C 9.9 °C 1019.9 hPa Calm     94 % 0.0 mm
04:52 10.8 °C 9.9 °C 1020.2 hPa Calm     94 % 0.0 mm
04:57 10.7 °C 9.8 °C 1020.2 hPa Calm     94 % 0.0 mm
05:02 10.7 °C 9.8 °C 1020.2 hPa Calm     94 % 0.0 mm
05:07 10.7 °C 9.8 °C 1020.2 hPa Calm     94 % 0.0 mm
05:12 10.7 °C 9.8 °C 1020.2 hPa Calm     94 % 0.0 mm
05:17 10.7 °C 9.8 °C 1020.2 hPa Calm     94 % 0.0 mm
05:22 10.5 °C 9.6 °C 1020.2 hPa Calm     94 % 0.0 mm
05:32 10.4 °C 9.5 °C 1020.2 hPa Calm     94 % 0.0 mm
05:37 10.4 °C 9.5 °C 1020.2 hPa Calm     94 % 0.0 mm
05:42 10.4 °C 9.5 °C 1020.2 hPa Calm     94 % 0.0 mm
05:47 10.3 °C 9.4 °C 1020.5 hPa Calm     94 % 0.0 mm
05:52 10.3 °C 9.4 °C 1020.2 hPa Calm     94 % 0.0 mm
05:57 10.3 °C 9.5 °C 1020.5 hPa Calm     95 % 0.0 mm
06:02 10.3 °C 9.5 °C 1020.2 hPa Calm     95 % 0.0 mm
06:12 10.4 °C 9.6 °C 1020.5 hPa Calm     95 % 0.0 mm
06:17 10.5 °C 9.7 °C 1020.2 hPa Calm     95 % 0.0 mm
06:22 10.6 °C 9.8 °C 1020.5 hPa Calm     95 % 0.0 mm
06:32 10.7 °C 9.9 °C 1020.2 hPa Calm     95 % 0.0 mm
06:37 10.8 °C 10.0 °C 1020.2 hPa Calm     95 % 0.0 mm
06:42 10.8 °C 10.0 °C 1020.5 hPa Calm     95 % 0.0 mm
06:47 10.8 °C 10.0 °C 1020.5 hPa Calm     95 % 0.0 mm
06:52 11.0 °C 10.2 °C 1020.5 hPa Calm     95 % 0.0 mm
06:57 11.1 °C 10.3 °C 1020.5 hPa Calm     95 % 0.0 mm
07:02 11.1 °C 10.3 °C 1020.5 hPa Calm     95 % 0.0 mm
07:07 11.1 °C 10.3 °C 1020.5 hPa Calm     95 % 0.0 mm
07:12 11.2 °C 10.4 °C 1020.5 hPa Calm     95 % 0.0 mm
07:17 11.3 °C 10.5 °C 1020.5 hPa Calm     95 % 0.0 mm
07:22 11.4 °C 10.6 °C 1020.5 hPa Calm     95 % 0.0 mm
07:32 12.0 °C 11.4 °C 1020.5 hPa Calm     96 % 0.0 mm
07:37 12.2 °C 11.6 °C 1020.5 hPa Calm     96 % 0.0 mm
07:42 12.4 °C 11.6 °C 1020.5 hPa Calm     95 % 0.0 mm
07:47 12.6 °C 11.8 °C 1020.5 hPa Calm     95 % 0.0 mm
07:52 12.8 °C 12.0 °C 1020.9 hPa Calm     95 % 0.0 mm
07:57 12.9 °C 12.0 °C 1020.9 hPa Calm     94 % 0.0 mm
08:02 13.1 °C 12.2 °C 1020.9 hPa Calm     94 % 0.0 mm
08:07 13.1 °C 12.0 °C 1020.9 hPa Calm     93 % 0.0 mm
08:12 13.3 °C 12.4 °C 1020.9 hPa Calm     94 % 0.0 mm
08:17 13.4 °C 12.5 °C 1020.9 hPa Calm     94 % 0.0 mm
08:22 13.6 °C 12.5 °C 1020.9 hPa Calm     93 % 0.0 mm
08:27 13.8 °C 12.7 °C 1020.9 hPa Calm     93 % 0.0 mm
08:32 14.1 °C 13.0 °C 1020.9 hPa Calm     93 % 0.0 mm
08:37 14.4 °C 12.9 °C 1020.9 hPa Calm     91 % 0.0 mm
08:42 14.8 °C 13.0 °C 1020.9 hPa Calm     89 % 0.0 mm
08:47 15.3 °C 13.1 °C 1020.9 hPa Calm     87 % 0.0 mm
08:57 16.5 °C 13.6 °C 1020.5 hPa Calm     83 % 0.0 mm
09:02 17.1 °C 13.6 °C 1020.5 hPa Calm     80 % 0.0 mm
09:07 17.9 °C 13.8 °C 1020.5 hPa Calm     77 % 0.0 mm
09:12 18.7 °C 14.2 °C 1020.5 hPa Calm     75 % 0.0 mm
09:17 19.3 °C 13.7 °C 1020.5 hPa Calm     70 % 0.0 mm
09:22 19.9 °C 13.6 °C 1020.5 hPa Calm     67 % 0.0 mm
09:27 20.3 °C 13.7 °C 1020.5 hPa Calm     66 % 0.0 mm
09:32 20.5 °C 13.5 °C 1020.5 hPa Calm   1.6 km/h 64 % 0.0 mm
09:37 20.9 °C 14.3 °C 1020.5 hPa Calm   3.2 km/h 66 % 0.0 mm
09:42 21.2 °C 14.1 °C 1020.5 hPa Calm   3.2 km/h 64 % 0.0 mm
09:47 21.5 °C 13.9 °C 1020.9 hPa Calm   3.2 km/h 62 % 0.0 mm
09:52 21.7 °C 13.6 °C 1020.9 hPa Calm   3.2 km/h 60 % 0.0 mm
09:57 22.1 °C 14.0 °C 1020.5 hPa Calm   3.2 km/h 60 % 0.0 mm
10:02 22.3 °C 13.1 °C 1020.5 hPa Calm   3.2 km/h 56 % 0.0 mm
10:07 22.4 °C 13.2 °C 1020.5 hPa Calm   3.2 km/h 56 % 0.0 mm
10:12 22.7 °C 14.0 °C 1020.9 hPa Calm   3.2 km/h 58 % 0.0 mm
10:17 22.7 °C 13.5 °C 1020.9 hPa SW 3.2 km/h 3.2 km/h 56 % 0.0 mm
10:22 22.4 °C 13.5 °C 1020.9 hPa Calm   3.2 km/h 57 % 0.0 mm
10:27 22.3 °C 13.6 °C 1020.9 hPa Calm   4.8 km/h 58 % 0.0 mm
10:32 22.3 °C 13.4 °C 1020.9 hPa Calm   4.8 km/h 57 % 0.0 mm
10:37 22.6 °C 12.8 °C 1020.9 hPa Calm   4.8 km/h 54 % 0.0 mm
10:42 22.8 °C 14.1 °C 1020.9 hPa Calm   6.4 km/h 58 % 0.0 mm
10:47 23.4 °C 13.3 °C 1020.9 hPa Calm   6.4 km/h 53 % 0.0 mm
10:52 23.8 °C 14.5 °C 1020.9 hPa Calm   6.4 km/h 56 % 0.0 mm
10:57 24.0 °C 13.2 °C 1020.9 hPa WSW 1.6 km/h 4.8 km/h 51 % 0.0 mm
11:02 23.9 °C 13.4 °C 1020.9 hPa Calm   6.4 km/h 52 % 0.0 mm
11:07 24.1 °C 13.6 °C 1020.9 hPa Calm   6.4 km/h 52 % 0.0 mm
11:12 24.4 °C 13.6 °C 1020.5 hPa Calm   4.8 km/h 51 % 0.0 mm
11:17 24.4 °C 12.7 °C 1020.5 hPa Calm   4.8 km/h 48 % 0.0 mm
11:22 25.0 °C 12.9 °C 1020.5 hPa Calm   4.8 km/h 47 % 0.0 mm
11:27 25.3 °C 12.8 °C 1020.5 hPa Calm   4.8 km/h 46 % 0.0 mm
11:32 25.1 °C 12.0 °C 1020.5 hPa Calm   6.4 km/h 44 % 0.0 mm
11:37 25.1 °C 13.9 °C 1020.5 hPa Calm   6.4 km/h 50 % 0.0 mm
11:42 25.5 °C 12.0 °C 1020.5 hPa Calm   6.4 km/h 43 % 0.0 mm
11:52 26.0 °C 13.8 °C 1020.2 hPa Calm   6.4 km/h 47 % 0.0 mm
11:57 26.0 °C 12.1 °C 1020.2 hPa NE 4.8 km/h 6.4 km/h 42 % 0.0 mm
12:02 25.3 °C 13.2 °C 1020.2 hPa Calm   6.4 km/h 47 % 0.0 mm
12:12 25.9 °C 13.1 °C 1020.2 hPa Calm   8.0 km/h 45 % 0.0 mm
12:17 25.9 °C 12.7 °C 1020.2 hPa Calm   4.8 km/h 44 % 0.0 mm
12:22 26.2 °C 13.0 °C 1020.2 hPa SE 3.2 km/h 4.8 km/h 44 % 0.0 mm
12:27 26.3 °C 12.4 °C 1020.2 hPa Calm   8.0 km/h 42 % 0.0 mm
12:32 26.6 °C 11.9 °C 1019.9 hPa Calm   8.0 km/h 40 % 0.0 mm
12:42 26.5 °C 12.2 °C 1019.9 hPa Calm   6.4 km/h 41 % 0.0 mm
12:47 26.7 °C 12.0 °C 1019.9 hPa Calm   6.4 km/h 40 % 0.0 mm
12:52 26.6 °C 11.9 °C 1019.9 hPa Calm   6.4 km/h 40 % 0.0 mm
12:57 26.2 °C 11.5 °C 1019.9 hPa Calm   6.4 km/h 40 % 0.0 mm
13:02 25.4 °C 11.2 °C 1019.9 hPa Calm   6.4 km/h 41 % 0.0 mm
13:07 25.7 °C 12.2 °C 1019.9 hPa Calm   6.4 km/h 43 % 0.0 mm
13:12 26.3 °C 12.7 °C 1019.9 hPa WNW 1.6 km/h 6.4 km/h 43 % 0.0 mm
13:22 26.5 °C 12.9 °C 1019.9 hPa Calm   3.2 km/h 43 % 0.0 mm
13:27 26.6 °C 12.6 °C 1019.9 hPa Calm   3.2 km/h 42 % 0.0 mm
13:32 27.3 °C 14.3 °C 1019.9 hPa NNW 1.6 km/h 4.8 km/h 45 % 0.0 mm
13:37 27.3 °C 13.3 °C 1019.9 hPa NE 4.8 km/h 4.8 km/h 42 % 0.0 mm
13:42 26.4 °C 12.8 °C 1019.9 hPa Calm   8.0 km/h 43 % 0.0 mm
13:47 26.2 °C 13.0 °C 1019.9 hPa WSW 3.2 km/h 8.0 km/h 44 % 0.0 mm
13:52 26.2 °C 13.0 °C 1019.5 hPa Calm   8.0 km/h 44 % 0.0 mm
13:57 26.3 °C 14.7 °C 1019.5 hPa Calm   6.4 km/h 49 % 0.0 mm
14:02 26.5 °C 14.3 °C 1019.5 hPa Calm   6.4 km/h 47 % 0.0 mm
14:07 26.3 °C 13.4 °C 1019.5 hPa Calm   3.2 km/h 45 % 0.0 mm
14:12 26.6 °C 13.7 °C 1019.5 hPa Calm   4.8 km/h 45 % 0.0 mm
14:17 27.0 °C 13.4 °C 1019.5 hPa WSW 1.6 km/h 4.8 km/h 43 % 0.0 mm
14:22 27.1 °C 13.4 °C 1019.5 hPa Calm   4.8 km/h 43 % 0.0 mm
14:27 27.2 °C 13.2 °C 1019.2 hPa Calm   4.8 km/h 42 % 0.0 mm
14:32 27.4 °C 13.0 °C 1019.2 hPa Calm   6.4 km/h 41 % 0.0 mm
14:37 27.7 °C 12.5 °C 1019.2 hPa Calm   6.4 km/h 39 % 0.0 mm
14:42 27.7 °C 14.0 °C 1019.2 hPa WSW 1.6 km/h 4.8 km/h 43 % 0.0 mm
14:47 27.8 °C 15.1 °C 1019.2 hPa WNW 4.8 km/h 4.8 km/h 46 % 0.0 mm
14:52 27.6 °C 13.2 °C 1019.2 hPa Calm   8.0 km/h 41 % 0.0 mm
14:57 27.2 °C 12.8 °C 1019.2 hPa Calm   8.0 km/h 41 % 0.0 mm
15:02 27.0 °C 14.1 °C 1019.2 hPa Calm   8.0 km/h 45 % 0.0 mm
15:07 27.1 °C 14.5 °C 1019.2 hPa Calm   3.2 km/h 46 % 0.0 mm
15:12 27.1 °C 13.1 °C 1018.8 hPa Calm   3.2 km/h 42 % 0.0 mm
15:17 27.3 °C 13.6 °C 1018.8 hPa Calm   3.2 km/h 43 % 0.0 mm
15:22 27.6 °C 13.9 °C 1018.8 hPa ENE 1.6 km/h 3.2 km/h 43 % 0.0 mm
15:27 27.5 °C 15.2 °C 1018.8 hPa NE 3.2 km/h 3.2 km/h 47 % 0.0 mm
15:32 27.4 °C 15.7 °C 1018.8 hPa Calm   6.4 km/h 49 % 0.0 mm
15:37 27.5 °C 13.1 °C 1018.8 hPa Calm   6.4 km/h 41 % 0.0 mm
15:42 27.7 °C 14.3 °C 1018.8 hPa Calm   6.4 km/h 44 % 0.0 mm
15:47 27.6 °C 13.2 °C 1018.8 hPa Calm   6.4 km/h 41 % 0.0 mm
15:52 27.5 °C 13.1 °C 1018.8 hPa Calm   4.8 km/h 41 % 0.0 mm
15:57 27.5 °C 13.8 °C 1018.5 hPa Calm     43 % 0.0 mm
16:02 27.4 °C 13.4 °C 1018.5 hPa Calm   4.8 km/h 42 % 0.0 mm
16:07 27.6 °C 14.6 °C 1018.5 hPa Calm   4.8 km/h 45 % 0.0 mm
16:12 27.7 °C 14.0 °C 1018.5 hPa West 1.6 km/h 4.8 km/h 43 % 0.0 mm
16:17 28.0 °C 15.3 °C 1018.5 hPa Calm   3.2 km/h 46 % 0.0 mm
16:22 28.1 °C 13.6 °C 1018.5 hPa Calm   3.2 km/h 41 % 0.0 mm
16:32 27.3 °C 12.9 °C 1018.5 hPa WSW 1.6 km/h 6.4 km/h 41 % 0.0 mm
16:37 27.2 °C 12.0 °C 1018.5 hPa Calm   6.4 km/h 39 % 0.0 mm
16:42 27.0 °C 13.0 °C 1018.5 hPa Calm   4.8 km/h 42 % 0.0 mm
16:47 27.2 °C 12.8 °C 1018.5 hPa WNW 1.6 km/h 4.8 km/h 41 % 0.0 mm
16:52 27.5 °C 13.8 °C 1018.2 hPa Calm   4.8 km/h 43 % 0.0 mm
16:57 27.6 °C 13.2 °C 1018.5 hPa Calm   3.2 km/h 41 % 0.0 mm
17:02 27.7 °C 14.0 °C 1018.5 hPa Calm   3.2 km/h 43 % 0.0 mm
17:07 27.8 °C 13.3 °C 1018.2 hPa Calm   1.6 km/h 41 % 0.0 mm
17:12 27.7 °C 15.0 °C 1018.5 hPa Calm     46 % 0.0 mm
17:17 27.7 °C 16.0 °C 1018.5 hPa Calm     49 % 0.0 mm
17:22 27.6 °C 14.2 °C 1018.2 hPa Calm     44 % 0.0 mm
17:27 27.7 °C 13.3 °C 1018.2 hPa Calm     41 % 0.0 mm
17:32 28.3 °C 14.2 °C 1018.2 hPa Calm     42 % 0.0 mm
17:37 28.7 °C 13.8 °C 1017.8 hPa Calm     40 % 0.0 mm
17:42 28.7 °C 13.8 °C 1017.8 hPa North 3.2 km/h 3.2 km/h 40 % 0.0 mm
17:47 28.7 °C 14.1 °C 1017.8 hPa Calm   4.8 km/h 41 % 0.0 mm
17:52 28.4 °C 13.1 °C 1017.8 hPa Calm   4.8 km/h 39 % 0.0 mm
17:57 28.1 °C 15.0 °C 1017.8 hPa Calm   4.8 km/h 45 % 0.0 mm
18:02 27.9 °C 14.5 °C 1017.8 hPa Calm     44 % 0.0 mm
18:07 27.6 °C 13.5 °C 1017.8 hPa Calm     42 % 0.0 mm
18:12 27.7 °C 13.6 °C 1017.8 hPa SW 3.2 km/h   42 % 0.0 mm
18:17 27.5 °C 13.4 °C 1017.8 hPa Calm   3.2 km/h 42 % 0.0 mm
18:22 27.4 °C 14.1 °C 1017.8 hPa Calm   3.2 km/h 44 % 0.0 mm
18:27 27.3 °C 14.0 °C 1017.8 hPa Calm   3.2 km/h 44 % 0.0 mm
18:32 27.1 °C 15.5 °C 1017.8 hPa Calm   1.6 km/h 49 % 0.0 mm
18:37 27.1 °C 15.5 °C 1017.5 hPa ENE 1.6 km/h 1.6 km/h 49 % 0.0 mm
18:42 27.1 °C 13.8 °C 1017.5 hPa East 3.2 km/h 4.8 km/h 44 % 0.0 mm
18:47 26.6 °C 13.0 °C 1017.5 hPa Calm   6.4 km/h 43 % 0.0 mm
18:52 26.3 °C 14.1 °C 1017.5 hPa NE 1.6 km/h 6.4 km/h 47 % 0.0 mm
18:57 26.3 °C 14.1 °C 1017.5 hPa Calm   6.4 km/h 47 % 0.0 mm
19:02 26.5 °C 13.6 °C 1017.5 hPa Calm   3.2 km/h 45 % 0.0 mm
19:07 26.6 °C 14.7 °C 1017.5 hPa Calm   3.2 km/h 48 % 0.0 mm
19:12 26.6 °C 15.0 °C 1017.5 hPa Calm   1.6 km/h 49 % 0.0 mm
19:17 26.2 °C 14.3 °C 1017.5 hPa Calm     48 % 0.0 mm
19:27 25.9 °C 12.7 °C 1017.5 hPa Calm     44 % 0.0 mm
19:32 25.8 °C 14.0 °C 1017.5 hPa Calm     48 % 0.0 mm
19:37 25.7 °C 12.9 °C 1017.5 hPa Calm   3.2 km/h 45 % 0.0 mm
19:42 25.6 °C 13.1 °C 1017.5 hPa Calm   4.8 km/h 46 % 0.0 mm
19:47 25.4 °C 13.6 °C 1017.5 hPa Calm   4.8 km/h 48 % 0.0 mm
19:52 25.2 °C 13.4 °C 1017.2 hPa Calm     48 % 0.0 mm
19:57 24.9 °C 13.1 °C 1017.5 hPa Calm     48 % 0.0 mm
20:02 24.8 °C 13.4 °C 1017.5 hPa Calm     49 % 0.0 mm
20:12 24.2 °C 14.0 °C 1017.5 hPa Calm     53 % 0.0 mm
20:17 23.9 °C 13.4 °C 1017.5 hPa Calm     52 % 0.0 mm
20:22 23.9 °C 14.0 °C 1017.5 hPa Calm     54 % 0.0 mm
20:27 23.9 °C 14.6 °C 1017.5 hPa Calm     56 % 0.0 mm
20:32 23.6 °C 14.6 °C 1017.5 hPa Calm     57 % 0.0 mm
20:37 23.2 °C 15.3 °C 1017.2 hPa Calm     61 % 0.0 mm
20:42 22.8 °C 14.6 °C 1017.5 hPa Calm     60 % 0.0 mm
20:47 22.4 °C 15.0 °C 1017.5 hPa Calm     63 % 0.0 mm
20:52 22.2 °C 15.3 °C 1017.5 hPa Calm     65 % 0.0 mm
20:57 21.9 °C 16.0 °C 1017.2 hPa Calm     69 % 0.0 mm
21:02 21.5 °C 15.3 °C 1017.5 hPa Calm     68 % 0.0 mm
21:07 21.1 °C 15.2 °C 1017.5 hPa Calm     69 % 0.0 mm
21:12 20.9 °C 15.2 °C 1017.5 hPa Calm     70 % 0.0 mm
21:17 20.7 °C 15.3 °C 1017.5 hPa Calm     71 % 0.0 mm
21:22 20.4 °C 15.6 °C 1017.5 hPa Calm     74 % 0.0 mm
21:27 20.2 °C 15.6 °C 1017.5 hPa Calm     75 % 0.0 mm
21:32 20.0 °C 15.4 °C 1017.5 hPa Calm     75 % 0.0 mm
21:37 19.7 °C 15.3 °C 1017.5 hPa Calm     76 % 0.0 mm
21:42 19.5 °C 14.9 °C 1017.5 hPa Calm     75 % 0.0 mm
21:47 19.3 °C 14.5 °C 1017.5 hPa Calm     74 % 0.0 mm
21:52 19.1 °C 14.8 °C 1017.5 hPa Calm     76 % 0.0 mm
21:57 18.8 °C 14.5 °C 1017.5 hPa Calm     76 % 0.0 mm
22:02 18.6 °C 14.3 °C 1017.5 hPa Calm     76 % 0.0 mm
22:07 18.4 °C 14.3 °C 1017.5 hPa Calm     77 % 0.0 mm
22:12 18.2 °C 14.1 °C 1017.5 hPa Calm     77 % 0.0 mm
22:17 18.0 °C 14.1 °C 1017.5 hPa Calm     78 % 0.0 mm
22:22 17.7 °C 14.0 °C 1017.5 hPa Calm     79 % 0.0 mm
22:27 17.4 °C 14.1 °C 1017.5 hPa Calm     81 % 0.0 mm
22:32 17.2 °C 14.1 °C 1017.5 hPa Calm     82 % 0.0 mm
22:37 16.9 °C 14.0 °C 1017.8 hPa Calm     83 % 0.0 mm
22:42 16.8 °C 14.1 °C 1017.5 hPa Calm     84 % 0.0 mm
22:47 16.8 °C 14.1 °C 1017.8 hPa Calm     84 % 0.0 mm
22:52 16.7 °C 14.0 °C 1017.8 hPa Calm     84 % 0.0 mm
22:57 16.5 °C 13.8 °C 1017.8 hPa Calm     84 % 0.0 mm
23:02 16.4 °C 13.9 °C 1017.8 hPa Calm     85 % 0.0 mm
23:07 16.3 °C 13.8 °C 1017.8 hPa Calm     85 % 0.0 mm
23:12 16.3 °C 14.0 °C 1017.8 hPa Calm     86 % 0.0 mm
23:17 16.3 °C 14.0 °C 1017.8 hPa Calm     86 % 0.0 mm
23:22 16.2 °C 13.9 °C 1017.8 hPa Calm     86 % 0.0 mm
23:27 16.1 °C 13.8 °C 1017.8 hPa Calm     86 % 0.0 mm
23:32 16.0 °C 13.8 °C 1018.2 hPa Calm     87 % 0.0 mm
23:37 16.2 °C 14.0 °C 1018.2 hPa Calm     87 % 0.0 mm
23:42 16.3 °C 14.1 °C 1018.2 hPa Calm     87 % 0.0 mm
23:47 16.3 °C 14.1 °C 1018.2 hPa Calm     87 % 0.0 mm
23:52 16.4 °C 14.2 °C 1018.2 hPa Calm     87 % 0.0 mm
23:57 16.5 °C 14.3 °C 1018.2 hPa Calm     87 % 0.0 mm
Meteo18
Compliments of Weather Underground - 4 mb

Script developed by  Jim McMurry - jmcmurry@mwt.net Adapted for the template by  Wim van der Kuil - Leuven-Template.eu

You find our weather info also at:

European Weather Network

Weather Underground

Equipment we use:

Weather-station
Davis Vue

Weather-program
Meteohub

Weather-server
Raspberry PI 2 B+

Provider
1 and 1

Davis Vue

Meteohub

Raspberry PI 2 B+

1 and 1